Terminal Aerodrome Forecast
Issued by NWS

Home | Current Version | Previous Version | Text Only | Print | Product List | Glossary On
Versions: 1 2 3 4 5 6 7 8 9 10 11 12 13 14 15 16 17 18 19 20 21 22 23
000
FTUS45 KCYS 301124
TAFRWL
TAF
KRWL 301124Z 3012/0112 05007KT 1 1/2SM -SN BR OVC016
     FM301600 05011KT 4SM -SN BR OVC025
     FM302100 06014KT P6SM BKN030=

USA.gov is the U.S. government's official web portal to all federal, state and local government web resources and services.